Time;durP1;ratioP1;P1;durP2;ratioP2;P2;SDS_P1;SDS_P2;PMS_P1;PMS_P2;Temp;Humidity;BMP_temperature;BMP_pressure;BME280_temperature;BME280_humidity;BME280_pressure;Samples;Min_cycle;Max_cycle;Signal;HPM_P1;HPM_P2
2021/10/17 00:00:19;;;;;;;7.32;6.45;;;22.80;38.40;;;;;;4777930;29;20079;-55
2021/10/17 00:02:47;;;;;;;7.63;5.78;;;22.80;38.40;;;;;;4782679;29;20082;-52
2021/10/17 00:05:16;;;;;;;8.38;5.97;;;22.70;38.40;;;;;;4782105;29;20118;-55
2021/10/17 00:07:44;;;;;;;6.22;5.07;;;22.70;38.40;;;;;;4778151;29;20247;-55
2021/10/17 00:10:16;;;;;;;7.57;6.05;;;22.80;38.40;;;;;;4772234;29;20162;-55
2021/10/17 00:12:43;;;;;;;7.60;6.43;;;22.70;38.40;;;;;;4782218;29;20150;-54
2021/10/17 00:15:14;;;;;;;7.25;6.13;;;22.70;38.50;;;;;;4782416;29;20059;-54
2021/10/17 00:17:41;;;;;;;;;;;22.70;38.50;;;;;;4778563;29;20059;-52
2021/10/17 00:20:11;;;;;;;6.35;5.75;;;22.70;38.50;;;;;;4777437;29;19933;-54
2021/10/17 00:22:39;;;;;;;6.38;5.22;;;22.70;38.50;;;;;;4781921;29;20065;-54
2021/10/17 00:25:08;;;;;;;6.85;5.93;;;22.70;38.50;;;;;;4781760;29;20051;-55
2021/10/17 00:27:36;;;;;;;7.68;5.68;;;22.70;38.50;;;;;;4778014;29;20087;-55
2021/10/17 00:30:05;;;;;;;9.35;6.55;;;22.70;38.50;;;;;;4776173;29;20079;-55
2021/10/17 00:32:33;;;;;;;9.13;6.17;;;22.70;38.50;;;;;;4780473;29;20151;-54
2021/10/17 00:35:01;;;;;;;7.68;6.20;;;22.70;38.50;;;;;;4782485;29;20142;-55
2021/10/17 00:37:29;;;;;;;5.95;5.35;;;22.70;38.50;;;;;;4776847;29;20047;-54
2021/10/17 00:39:57;;;;;;;7.53;5.97;;;22.60;38.50;;;;;;4775697;30;20086;-55
2021/10/17 00:42:24;;;;;;;6.90;5.47;;;22.70;38.50;;;;;;4780004;29;20061;-55
2021/10/17 00:44:57;;;;;;;7.28;6.00;;;22.70;38.50;;;;;;4780512;29;20059;-55
2021/10/17 00:47:25;;;;;;;7.97;5.90;;;22.70;38.50;;;;;;4777052;29;20065;-54
2021/10/17 00:49:53;;;;;;;7.10;5.43;;;22.70;38.50;;;;;;4775691;29;20470;-55
2021/10/17 00:52:20;;;;;;;7.38;5.82;;;22.70;38.40;;;;;;4780372;29;20055;-55
2021/10/17 00:54:48;;;;;;;7.28;5.68;;;22.70;38.40;;;;;;4779442;29;20174;-55
2021/10/17 00:57:17;;;;;;;6.50;5.70;;;22.70;38.40;;;;;;4779330;29;20065;-55
2021/10/17 00:59:45;;;;;;;6.88;5.65;;;22.70;38.40;;;;;;4774061;29;20203;-53
2021/10/17 01:02:13;;;;;;;6.15;5.53;;;22.70;38.40;;;;;;4780450;29;20082;-54
2021/10/17 01:04:41;;;;;;;6.43;5.60;;;22.70;38.40;;;;;;4780119;29;20084;-55
2021/10/17 01:07:09;;;;;;;7.15;5.78;;;22.70;38.40;;;;;;4780469;29;20059;-53
2021/10/17 01:09:39;;;;;;;6.35;5.60;;;22.70;38.40;;;;;;4771112;29;20063;-53
2021/10/17 01:12:06;;;;;;;7.20;5.57;;;22.70;38.40;;;;;;4781156;29;20074;-54
2021/10/17 01:14:34;;;;;;;6.18;5.35;;;22.70;38.40;;;;;;4780609;29;20314;-55
2021/10/17 01:17:02;;;;;;;6.00;5.22;;;22.60;38.40;;;;;;4780135;29;20487;-56
2021/10/17 01:19:29;;;;;;;6.88;5.72;;;22.70;38.50;;;;;;4770328;29;20105;-55
2021/10/17 01:21:56;;;;;;;6.15;5.30;;;22.70;38.50;;;;;;4780541;29;20053;-55
2021/10/17 01:24:23;;;;;;;6.18;5.53;;;22.60;38.40;;;;;;4779611;29;20055;-54
2021/10/17 01:26:50;;;;;;;6.75;5.13;;;22.70;38.50;;;;;;4780204;29;20087;-55
2021/10/17 01:29:17;;;;;;;5.45;4.88;;;22.60;38.40;;;;;;4771865;29;20061;-55
2021/10/17 01:31:54;;;;;;;5.40;4.63;;;22.60;38.50;;;;;;4780601;29;20127;-55
2021/10/17 01:34:23;;;;;;;6.00;5.38;;;22.60;38.40;;;;;;4780784;29;20055;-55
2021/10/17 01:36:50;;;;;;;6.00;5.40;;;22.60;38.50;;;;;;4778628;30;20154;-55
2021/10/17 01:39:20;;;;;;;7.28;5.03;;;22.60;38.50;;;;;;4772694;29;20056;-55
2021/10/17 01:41:48;;;;;;;5.43;4.93;;;22.60;38.50;;;;;;4779886;29;20058;-53
2021/10/17 01:44:25;;;;;;;7.20;5.57;;;22.60;38.50;;;;;;4780131;29;20055;-53
2021/10/17 01:46:53;;;;;;;7.90;5.15;;;22.60;38.50;;;;;;4778891;29;20146;-54
2021/10/17 01:49:20;;;;;;;5.85;5.03;;;22.50;38.40;;;;;;4771145;29;20047;-54
2021/10/17 01:51:49;;;;;;;5.82;5.22;;;22.60;38.50;;;;;;4780081;29;20147;-54
2021/10/17 01:54:16;;;;;;;6.53;5.10;;;22.60;38.50;;;;;;4779363;29;20055;-55
2021/10/17 01:56:43;;;;;;;6.22;5.57;;;22.50;39.00;;;;;;4780232;29;20051;-54
2021/10/17 01:59:10;;;;;;;7.30;5.43;;;22.60;38.50;;;;;;4773671;29;20051;-55
2021/10/17 02:01:37;;;;;;;8.05;5.82;;;22.50;38.50;;;;;;4782890;29;20055;-54
2021/10/17 02:04:05;;;;;;;4.93;4.43;;;22.50;38.50;;;;;;4782893;29;20509;-54
2021/10/17 02:06:32;;;;;;;6.28;5.10;;;22.50;38.50;;;;;;4783357;29;20052;-55
2021/10/17 02:09:01;;;;;;;5.30;4.80;;;22.50;38.50;;;;;;4774149;29;20085;-53
2021/10/17 02:11:29;;;;;;;5.93;5.00;;;22.50;38.50;;;;;;4783207;29;20138;-55
2021/10/17 02:13:56;;;;;;;5.55;5.00;;;22.50;38.50;;;;;;4783134;29;20051;-54
2021/10/17 02:16:23;;;;;;;5.93;5.07;;;22.50;38.50;;;;;;4782961;29;20128;-55
2021/10/17 02:18:50;;;;;;;6.47;5.07;;;22.50;38.50;;;;;;4772518;29;20159;-55
2021/10/17 02:21:17;;;;;;;5.70;4.85;;;22.50;38.50;;;;;;4781114;30;20490;-55
2021/10/17 02:23:44;;;;;;;6.13;5.20;;;22.50;38.40;;;;;;4782048;29;20063;-54
2021/10/17 02:26:11;;;;;;;6.63;5.40;;;22.50;38.40;;;;;;4782562;29;20119;-55
2021/10/17 02:28:39;;;;;;;6.35;5.15;;;22.60;38.50;;;;;;4775805;29;20085;-55
2021/10/17 02:31:06;;;;;;;6.82;5.07;;;22.60;38.40;;;;;;4779737;30;20070;-54
2021/10/17 02:33:33;;;;;;;6.15;5.40;;;22.60;38.40;;;;;;4782438;29;20062;-54
2021/10/17 02:36:01;;;;;;;5.18;4.68;;;22.60;38.40;;;;;;4782391;29;20086;-55
2021/10/17 02:38:28;;;;;;;5.63;4.72;;;22.50;38.40;;;;;;4760244;30;20039;-54
2021/10/17 02:40:56;;;;;;;5.13;4.60;;;22.50;38.40;;;;;;4780743;29;20060;-54
2021/10/17 02:43:23;;;;;;;7.22;4.85;;;22.50;38.40;;;;;;4782032;29;20162;-55
2021/10/17 02:45:50;;;;;;;5.50;4.43;;;22.60;38.40;;;;;;4780974;30;20055;-53
2021/10/17 02:48:17;;;;;;;5.22;4.63;;;22.50;38.40;;;;;;4776477;29;20047;-55
2021/10/17 02:50:45;;;;;;;6.15;5.13;;;22.50;38.40;;;;;;4779923;29;20735;-55
2021/10/17 02:53:12;;;;;;;6.03;4.70;;;22.50;38.40;;;;;;4782130;29;20337;-54
2021/10/17 02:55:39;;;;;;;6.15;4.68;;;22.50;38.40;;;;;;4782747;29;20138;-54
2021/10/17 02:58:06;;;;;;;6.32;5.53;;;22.50;38.40;;;;;;4777081;29;20063;-53
2021/10/17 03:00:33;;;;;;;5.82;4.70;;;22.50;38.40;;;;;;4779600;29;20062;-53
2021/10/17 03:03:00;;;;;;;5.72;4.75;;;22.50;38.40;;;;;;4782483;29;20146;-53
2021/10/17 03:05:27;;;;;;;6.07;4.50;;;22.50;38.40;;;;;;4781888;29;20492;-54
2021/10/17 03:07:54;;;;;;;5.43;4.88;;;22.40;38.40;;;;;;4777957;29;20150;-55
2021/10/17 03:10:25;;;;;;;6.18;4.30;;;22.40;38.40;;;;;;4774490;29;20506;-55
2021/10/17 03:12:52;;;;;;;5.57;4.40;;;22.50;38.40;;;;;;4781758;29;20059;-54
2021/10/17 03:15:19;;;;;;;5.70;4.43;;;22.50;38.40;;;;;;4782032;29;20083;-52
2021/10/17 03:17:47;;;;;;;5.93;4.93;;;22.40;38.40;;;;;;4778171;29;20335;-55
2021/10/17 03:20:14;;;;;;;6.35;4.72;;;22.40;38.40;;;;;;4777061;29;20203;-55
2021/10/17 03:22:41;;;;;;;5.03;4.13;;;22.40;38.40;;;;;;4781832;29;20233;-56
2021/10/17 03:25:08;;;;;;;6.05;4.38;;;22.40;38.40;;;;;;4781765;29;20151;-54
2021/10/17 03:27:36;;;;;;;4.57;4.13;;;22.40;38.40;;;;;;4777534;29;20105;-54
2021/10/17 03:30:05;;;;;;;4.45;4.05;;;22.40;38.40;;;;;;4775498;30;20122;-55
2021/10/17 03:32:32;;;;;;;4.80;4.28;;;22.40;38.40;;;;;;4781129;29;20090;-55
2021/10/17 03:35:03;;;;;;;5.57;4.80;;;22.40;38.40;;;;;;4781606;29;20492;-55
2021/10/17 03:37:32;;;;;;;5.15;4.65;;;22.40;38.40;;;;;;4776816;30;20628;-54
2021/10/17 03:39:59;;;;;;;6.00;4.82;;;22.40;38.40;;;;;;4776575;29;20172;-55
2021/10/17 03:42:27;;;;;;;5.45;4.28;;;22.40;38.40;;;;;;4781042;29;20275;-55
2021/10/17 03:44:54;;;;;;;5.57;4.95;;;22.40;39.00;;;;;;4781319;29;20502;-54
2021/10/17 03:47:21;;;;;;;5.90;4.28;;;22.40;38.40;;;;;;4779533;29;20146;-55
2021/10/17 03:49:48;;;;;;;4.90;4.40;;;22.40;38.40;;;;;;4774648;29;20503;-54
2021/10/17 03:52:15;;;;;;;4.75;4.20;;;22.40;38.40;;;;;;4780084;29;20146;-54
2021/10/17 03:54:43;;;;;;;5.53;4.85;;;22.40;38.40;;;;;;4779951;29;20595;-55
2021/10/17 03:57:11;;;;;;;4.88;4.10;;;22.40;38.40;;;;;;4781503;29;20054;-55
2021/10/17 03:59:38;;;;;;;5.53;4.47;;;22.40;38.40;;;;;;4772661;29;20582;-54
2021/10/17 04:02:05;;;;;;;5.88;3.95;;;22.40;38.40;;;;;;4781021;29;20079;-55
2021/10/17 04:04:32;;;;;;;4.50;3.88;;;22.40;38.30;;;;;;4781648;29;20093;-55
2021/10/17 04:07:00;;;;;;;5.95;4.50;;;22.40;38.30;;;;;;4780403;29;20093;-54
2021/10/17 04:09:27;;;;;;;4.40;4.00;;;22.40;38.30;;;;;;4772299;29;20047;-54
2021/10/17 04:11:54;;;;;;;4.15;3.72;;;22.40;38.30;;;;;;4780950;29;20150;-55
2021/10/17 04:14:21;;;;;;;5.13;3.78;;;22.40;38.30;;;;;;4781047;29;20239;-54
2021/10/17 04:16:48;;;;;;;4.57;3.88;;;22.40;38.30;;;;;;4780350;29;20055;-55
2021/10/17 04:19:15;;;;;;;4.18;3.78;;;22.40;38.30;;;;;;4772928;29;20074;-55
2021/10/17 04:21:42;;;;;;;5.47;4.38;;;22.40;38.30;;;;;;4780465;29;20114;-55
2021/10/17 04:24:09;;;;;;;4.32;3.92;;;22.40;38.30;;;;;;4780123;29;20618;-55
2021/10/17 04:26:37;;;;;;;4.72;4.13;;;22.40;38.30;;;;;;4780471;29;20061;-55
2021/10/17 04:29:04;;;;;;;4.55;4.10;;;22.40;38.30;;;;;;4772919;29;20490;-54
2021/10/17 04:31:32;;;;;;;5.10;3.72;;;22.40;38.30;;;;;;4779591;29;20510;-54
2021/10/17 04:33:59;;;;;;;4.05;3.65;;;22.40;38.30;;;;;;4781225;29;20077;-55
2021/10/17 04:36:26;;;;;;;5.07;3.70;;;22.40;38.30;;;;;;4781228;29;20475;-53
2021/10/17 04:38:53;;;;;;;6.57;4.25;;;22.40;38.30;;;;;;4773091;29;20152;-55
2021/10/17 04:41:20;;;;;;;4.47;4.07;;;22.40;38.30;;;;;;4781085;29;20078;-55
2021/10/17 04:43:48;;;;;;;4.88;4.03;;;22.40;38.30;;;;;;4780594;29;20486;-55
2021/10/17 04:46:15;;;;;;;4.05;3.65;;;22.40;38.30;;;;;;4780381;29;20126;-55
2021/10/17 04:48:42;;;;;;;4.35;3.83;;;22.40;38.30;;;;;;4770666;29;20150;-53
2021/10/17 04:51:09;;;;;;;4.50;3.88;;;22.40;38.30;;;;;;4765184;30;20083;-53
2021/10/17 04:53:36;;;;;;;4.03;3.63;;;22.40;38.30;;;;;;4780722;29;20047;-54
2021/10/17 04:56:04;;;;;;;4.32;3.67;;;22.40;38.30;;;;;;4780695;29;20146;-54
2021/10/17 04:58:31;;;;;;;4.00;3.60;;;22.30;38.30;;;;;;4773467;29;20047;-55
2021/10/17 05:00:59;;;;;;;4.00;3.53;;;22.30;38.30;;;;;;4778333;29;20352;-53
2021/10/17 05:03:26;;;;;;;3.80;3.42;;;22.30;38.30;;;;;;4779595;29;20528;-55
2021/10/17 05:05:53;;;;;;;4.82;3.83;;;22.30;38.30;;;;;;4780164;29;20055;-58
2021/10/17 05:08:20;;;;;;;4.47;3.83;;;22.30;38.10;;;;;;4774123;29;20482;-53
2021/10/17 05:10:48;;;;;;;3.92;3.53;;;22.40;37.90;;;;;;4777068;30;20142;-55
2021/10/17 05:13:15;;;;;;;3.25;2.95;;;22.40;37.80;;;;;;4779466;29;20458;-55
2021/10/17 05:15:42;;;;;;;4.20;3.60;;;22.40;37.60;;;;;;4780550;29;20147;-55
2021/10/17 05:18:09;;;;;;;5.10;4.60;;;22.40;37.50;;;;;;4773568;29;20146;-57
2021/10/17 05:20:36;;;;;;;4.03;3.55;;;22.50;37.50;;;;;;4777501;29;20166;-54
2021/10/17 05:23:08;;;;;;;4.22;3.30;;;22.50;37.30;;;;;;4779901;29;20083;-54
2021/10/17 05:25:38;;;;;;;3.97;3.47;;;22.50;37.20;;;;;;4780592;29;20138;-54
2021/10/17 05:28:05;;;;;;;4.18;3.55;;;22.40;37.00;;;;;;4775555;29;20078;-54
2021/10/17 05:30:35;;;;;;;3.63;3.30;;;22.40;36.90;;;;;;4772961;30;20059;-54
2021/10/17 05:33:03;;;;;;;4.38;3.30;;;22.50;36.90;;;;;;4762592;30;20072;-54
2021/10/17 05:35:30;;;;;;;4.82;3.53;;;22.50;36.80;;;;;;4765077;30;20142;-54
2021/10/17 05:37:58;;;;;;;3.45;3.15;;;22.50;36.70;;;;;;4765998;29;20487;-55
2021/10/17 05:40:25;;;;;;;3.55;3.17;;;22.50;36.60;;;;;;4779001;29;20120;-55
2021/10/17 05:42:52;;;;;;;3.13;2.85;;;22.50;36.40;;;;;;4783452;29;20145;-55
2021/10/17 05:45:19;;;;;;;3.35;3.05;;;22.60;36.40;;;;;;4783776;30;20094;-55
2021/10/17 05:47:46;;;;;;;5.13;3.10;;;22.60;36.20;;;;;;4780206;29;20506;-55
2021/10/17 05:50:13;;;;;;;3.85;3.38;;;22.70;36.20;;;;;;4779503;29;20086;-55
2021/10/17 05:52:40;;;;;;;3.83;3.45;;;22.70;36.10;;;;;;4783916;29;20055;-58
2021/10/17 05:55:08;;;;;;;3.55;3.25;;;22.80;36.00;;;;;;4784121;29;20102;-54
2021/10/17 05:57:36;;;;;;;3.22;2.92;;;22.80;35.80;;;;;;4780794;29;20171;-55
2021/10/17 06:00:06;;;;;;;3.17;2.88;;;22.90;35.80;;;;;;4777937;29;20402;-54
2021/10/17 06:02:33;;;;;;;3.23;2.93;;;22.90;35.70;;;;;;4783048;29;20124;-55
2021/10/17 06:05:00;;;;;;;4.68;2.97;;;23.00;35.70;;;;;;4784811;29;20665;-55
2021/10/17 06:07:28;;;;;;;3.13;2.85;;;23.00;35.50;;;;;;4780323;29;20319;-52
2021/10/17 06:09:55;;;;;;;5.22;3.60;;;23.00;35.40;;;;;;4778686;29;20059;-54
2021/10/17 06:12:22;;;;;;;3.05;2.83;;;23.00;35.30;;;;;;4782846;29;20059;-53
2021/10/17 06:14:49;;;;;;;3.38;3.08;;;23.20;35.30;;;;;;4782282;29;20055;-54
2021/10/17 06:17:18;;;;;;;3.28;2.97;;;23.20;35.20;;;;;;4782466;29;20047;-54
2021/10/17 06:19:45;;;;;;;2.92;2.72;;;23.20;35.10;;;;;;4776237;29;20159;-55
2021/10/17 06:22:12;;;;;;;2.92;2.70;;;23.20;35.00;;;;;;4783232;29;20142;-54
2021/10/17 06:24:39;;;;;;;2.70;2.50;;;23.30;35.00;;;;;;4782479;29;20073;-55
2021/10/17 06:27:06;;;;;;;3.28;2.97;;;23.30;34.90;;;;;;4783479;29;20090;-55
2021/10/17 06:29:34;;;;;;;3.50;3.20;;;23.30;34.80;;;;;;4776466;29;20055;-53
2021/10/17 06:32:01;;;;;;;3.10;2.80;;;23.40;34.80;;;;;;4783793;29;20055;-55
2021/10/17 06:34:28;;;;;;;3.40;3.10;;;23.40;34.70;;;;;;4781847;29;20058;-53
2021/10/17 06:36:56;;;;;;;4.47;3.97;;;23.50;34.70;;;;;;4783544;29;20142;-55
2021/10/17 06:39:23;;;;;;;3.63;3.05;;;23.50;34.70;;;;;;4773873;29;20066;-54
2021/10/17 06:41:50;;;;;;;3.67;3.38;;;23.50;34.60;;;;;;4783360;29;20051;-53
2021/10/17 06:44:21;;;;;;;3.55;3.25;;;23.60;34.60;;;;;;4783289;29;20051;-55
2021/10/17 06:46:49;;;;;;;3.25;2.97;;;23.60;34.50;;;;;;4782876;29;20417;-55
2021/10/17 06:49:17;;;;;;;3.67;3.05;;;23.60;34.50;;;;;;4773777;29;20510;-55
2021/10/17 06:51:44;;;;;;;3.03;2.83;;;23.70;34.50;;;;;;4782560;29;20581;-55
2021/10/17 06:54:12;;;;;;;3.47;3.17;;;23.70;34.40;;;;;;4781781;29;20052;-55
2021/10/17 06:56:39;;;;;;;3.08;2.78;;;23.80;34.40;;;;;;4783330;29;20541;-52
2021/10/17 06:59:06;;;;;;;3.10;2.80;;;23.80;34.30;;;;;;4774974;29;20142;-55
2021/10/17 07:01:33;;;;;;;3.67;3.38;;;23.90;34.30;;;;;;4783514;29;20518;-54
2021/10/17 07:04:01;;;;;;;3.17;2.97;;;23.90;34.20;;;;;;4782795;29;20070;-53
2021/10/17 07:06:28;;;;;;;3.30;3.00;;;23.90;34.20;;;;;;4782030;30;20062;-52
2021/10/17 07:08:59;;;;;;;3.08;2.78;;;24.00;34.20;;;;;;4773889;29;20061;-55
2021/10/17 07:11:26;;;;;;;3.20;2.90;;;24.00;34.10;;;;;;4782978;29;20470;-55
2021/10/17 07:13:53;;;;;;;3.35;3.05;;;24.10;34.10;;;;;;4782161;29;20133;-54
2021/10/17 07:16:20;;;;;;;3.42;3.08;;;24.10;34.00;;;;;;4783215;29;20051;-55
2021/10/17 07:18:47;;;;;;;3.63;3.10;;;24.10;33.90;;;;;;4773107;29;20104;-54
2021/10/17 07:21:15;;;;;;;4.00;3.08;;;24.10;33.90;;;;;;4782253;30;20307;-57
2021/10/17 07:23:42;;;;;;;3.42;3.13;;;24.20;33.90;;;;;;4782479;29;20055;-53
2021/10/17 07:26:09;;;;;;;3.45;3.15;;;24.20;33.90;;;;;;4782805;29;20095;-53
2021/10/17 07:28:36;;;;;;;3.53;3.22;;;24.20;33.80;;;;;;4777455;29;20498;-55
2021/10/17 07:31:03;;;;;;;3.65;3.20;;;24.30;33.90;;;;;;4780027;29;20055;-54
2021/10/17 07:33:30;;;;;;;3.13;2.90;;;24.30;33.80;;;;;;4782783;29;20051;-55
2021/10/17 07:35:57;;;;;;;3.30;3.00;;;24.30;33.80;;;;;;4782391;29;20576;-55
2021/10/17 07:38:24;;;;;;;3.38;3.08;;;24.30;33.80;;;;;;4776503;29;20055;-54
2021/10/17 07:40:51;;;;;;;3.17;2.92;;;24.40;33.70;;;;;;4779846;29;20132;-55
2021/10/17 07:43:19;;;;;;;3.25;2.92;;;24.40;33.70;;;;;;4781948;29;20063;-57
2021/10/17 07:45:46;;;;;;;3.30;3.03;;;24.50;33.70;;;;;;4781066;30;20704;-55
2021/10/17 07:48:13;;;;;;;3.22;2.95;;;24.50;33.70;;;;;;4777526;29;20339;-55
2021/10/17 07:50:41;;;;;;;3.60;3.30;;;24.50;33.60;;;;;;4780095;29;20651;-55
2021/10/17 07:53:10;;;;;;;3.30;3.00;;;24.50;33.60;;;;;;4781346;29;20520;-54
2021/10/17 07:55:37;;;;;;;3.60;3.30;;;24.60;33.60;;;;;;4781474;29;20143;-56
2021/10/17 07:58:04;;;;;;;3.30;2.95;;;24.60;33.60;;;;;;4777297;29;20059;-55
2021/10/17 08:00:32;;;;;;;3.50;3.20;;;24.60;33.50;;;;;;4779070;29;20151;-54
2021/10/17 08:02:59;;;;;;;4.30;3.20;;;24.60;33.50;;;;;;4781767;29;20134;-54
2021/10/17 08:05:26;;;;;;;2.83;2.63;;;24.70;33.60;;;;;;4781609;30;20175;-54
2021/10/17 08:07:54;;;;;;;3.25;2.90;;;24.70;33.50;;;;;;4778431;29;20369;-54
2021/10/17 08:10:22;;;;;;;3.30;3.00;;;24.70;33.50;;;;;;4777135;29;20085;-55
2021/10/17 08:12:49;;;;;;;3.53;3.17;;;24.70;33.40;;;;;;4781767;29;20051;-55
2021/10/17 08:15:16;;;;;;;4.22;3.47;;;24.80;33.50;;;;;;4781562;29;20112;-53
2021/10/17 08:17:43;;;;;;;3.80;3.40;;;24.80;33.40;;;;;;4778424;29;20055;-53
2021/10/17 08:20:10;;;;;;;3.65;3.35;;;24.80;33.40;;;;;;4776936;29;20090;-54
2021/10/17 08:22:38;;;;;;;3.80;3.50;;;24.80;33.40;;;;;;4781763;29;20138;-55
2021/10/17 08:25:06;;;;;;;3.60;3.30;;;24.90;33.40;;;;;;4780623;29;20069;-54
2021/10/17 08:27:34;;;;;;;3.50;2.92;;;24.90;33.40;;;;;;4778356;29;20066;-55
2021/10/17 08:30:03;;;;;;;3.40;3.10;;;24.90;33.30;;;;;;4776904;29;20167;-55
2021/10/17 08:32:30;;;;;;;3.33;3.03;;;24.90;33.30;;;;;;4781426;29;20727;-54
2021/10/17 08:34:57;;;;;;;3.17;2.92;;;25.00;33.30;;;;;;4781503;29;20055;-56
2021/10/17 08:37:25;;;;;;;4.82;3.42;;;25.00;33.30;;;;;;4779650;29;20130;-55
2021/10/17 08:39:53;;;;;;;3.40;3.17;;;25.00;33.20;;;;;;4771924;29;20048;-55
2021/10/17 08:42:24;;;;;;;3.50;3.20;;;25.10;33.30;;;;;;4762922;30;20250;-55
2021/10/17 08:45:05;;;;;;;3.30;3.00;;;25.10;33.30;;;;;;4763116;30;20059;-55
2021/10/17 08:47:33;;;;;;;3.35;3.05;;;25.10;33.20;;;;;;4760422;30;20470;-55
2021/10/17 08:50:02;;;;;;;3.42;3.13;;;25.10;33.20;;;;;;4776766;29;20156;-55
2021/10/17 08:52:30;;;;;;;3.70;3.22;;;25.20;33.20;;;;;;4780406;30;20055;-56
2021/10/17 08:54:57;;;;;;;4.38;3.30;;;25.20;33.10;;;;;;4782065;29;20090;-53
2021/10/17 08:57:24;;;;;;;3.10;2.75;;;25.20;33.10;;;;;;4779581;29;20050;-55
2021/10/17 08:59:52;;;;;;;3.10;2.83;;;25.20;33.10;;;;;;4775857;29;20062;-53
2021/10/17 09:02:22;;;;;;;4.60;3.67;;;25.30;33.20;;;;;;4780981;29;20150;-55
2021/10/17 09:05:08;;;;;;;3.25;2.95;;;25.30;33.10;;;;;;4780949;29;20076;-56
2021/10/17 09:07:35;;;;;;;2.88;2.65;;;25.30;33.10;;;;;;4779275;29;20331;-54
2021/10/17 09:10:13;;;;;;;2.80;2.60;;;25.30;33.00;;;;;;4781583;29;20392;-55
2021/10/17 09:12:42;;;;;;;2.75;2.55;;;25.40;33.10;;;;;;4784061;29;20087;-55
2021/10/17 09:15:28;;;;;;;3.35;3.05;;;25.40;33.10;;;;;;4785217;29;20142;-55
2021/10/17 09:18:14;;;;;;;3.80;3.40;;;25.40;33.00;;;;;;4781212;29;20339;-53
2021/10/17 09:20:54;;;;;;;3.17;2.85;;;25.40;33.00;;;;;;4783166;29;20064;-55
2021/10/17 09:23:38;;;;;;;3.35;3.05;;;25.50;33.00;;;;;;4785294;29;20078;-54
2021/10/17 09:26:12;;;;;;;3.08;2.80;;;25.50;33.00;;;;;;4784314;29;20329;-54
2021/10/17 09:28:40;;;;;;;2.85;2.63;;;25.50;33.00;;;;;;4777477;29;20127;-54
2021/10/17 09:31:16;;;;;;;2.65;2.45;;;25.50;33.00;;;;;;4784302;29;20055;-55
2021/10/17 09:33:50;;;;;;;2.67;2.47;;;25.60;33.00;;;;;;4784377;29;20498;-54
2021/10/17 09:36:20;;;;;;;2.83;2.63;;;25.60;33.00;;;;;;4783661;29;20498;-55
2021/10/17 09:38:50;;;;;;;2.60;2.40;;;25.60;33.00;;;;;;4775333;29;20167;-54
2021/10/17 09:41:36;;;;;;;3.55;3.03;;;25.60;33.00;;;;;;4783633;29;20593;-54
2021/10/17 09:44:04;;;;;;;3.10;2.78;;;25.60;32.90;;;;;;4784636;29;20066;-55
2021/10/17 09:46:32;;;;;;;2.88;2.67;;;25.60;32.90;;;;;;4783998;29;20319;-54
2021/10/17 09:49:00;;;;;;;2.50;2.30;;;25.70;32.90;;;;;;4775632;29;20090;-55
2021/10/17 09:51:29;;;;;;;3.38;3.08;;;25.70;33.00;;;;;;4783513;29;20043;-55
2021/10/17 09:54:00;;;;;;;2.53;2.25;;;25.70;32.90;;;;;;4784639;29;20058;-53
2021/10/17 09:56:40;;;;;;;2.75;2.55;;;25.70;32.90;;;;;;4783700;29;20059;-54
2021/10/17 09:59:10;;;;;;;2.83;2.63;;;25.80;33.00;;;;;;4774714;29;20098;-55
2021/10/17 10:01:38;;;;;;;2.63;2.42;;;25.80;32.90;;;;;;4784540;29;20066;-54
2021/10/17 10:04:08;;;;;;;2.15;2.05;;;25.80;32.90;;;;;;4784396;29;20087;-56
2021/10/17 10:06:35;;;;;;;2.88;2.67;;;25.80;32.80;;;;;;4784011;29;20142;-54
2021/10/17 10:09:09;;;;;;;2.22;2.03;;;25.90;32.90;;;;;;4775546;29;20141;-55
2021/10/17 10:11:38;;;;;;;2.60;2.40;;;25.90;32.90;;;;;;4783422;29;20074;-55
2021/10/17 10:14:07;;;;;;;2.85;2.47;;;25.90;32.80;;;;;;4783510;29;20146;-55
2021/10/17 10:16:36;;;;;;;2.33;2.13;;;25.90;32.70;;;;;;4783958;29;20055;-55
2021/10/17 10:19:06;;;;;;;2.58;2.38;;;26.00;32.80;;;;;;4776170;29;20059;-53
2021/10/17 10:21:35;;;;;;;1.90;1.80;;;25.90;32.60;;;;;;4783954;29;20095;-54
2021/10/17 10:24:04;;;;;;;2.35;2.15;;;26.00;32.60;;;;;;4782966;29;20093;-55
2021/10/17 10:26:32;;;;;;;2.53;2.33;;;26.00;32.60;;;;;;4783018;29;20363;-55
2021/10/17 10:29:00;;;;;;;2.15;1.95;;;26.00;32.60;;;;;;4775255;29;20051;-52
2021/10/17 10:31:48;;;;;;;2.28;2.08;;;26.00;32.50;;;;;;4784049;29;20055;-55
2021/10/17 10:34:55;;;;;;;2.17;1.98;;;26.10;32.50;;;;;;4784081;29;20134;-54
2021/10/17 10:37:26;;;;;;;2.47;2.28;;;26.10;32.50;;;;;;4783678;29;20093;-55
2021/10/17 10:40:08;;;;;;;2.53;2.30;;;26.10;32.50;;;;;;4777955;29;20077;-56
2021/10/17 10:42:37;;;;;;;2.72;1.98;;;26.10;32.40;;;;;;4765305;30;20093;-55
2021/10/17 10:45:23;;;;;;;1.98;1.88;;;26.10;32.40;;;;;;4765730;30;20087;-55
2021/10/17 10:48:17;;;;;;;2.00;1.90;;;26.10;32.90;;;;;;4764062;29;20134;-55
2021/10/17 10:50:54;;;;;;;1.88;1.77;;;26.20;32.40;;;;;;4767569;30;20051;-54
2021/10/17 10:53:48;;;;;;;1.80;1.70;;;26.20;32.40;;;;;;4783541;29;20079;-56
2021/10/17 10:56:40;;;;;;;2.45;2.25;;;26.20;32.30;;;;;;4783472;29;20051;-56
2021/10/17 10:59:11;;;;;;;1.73;1.63;;;26.30;32.40;;;;;;4774784;29;20051;-55
2021/10/17 11:02:11;;;;;;;1.70;1.60;;;26.30;32.30;;;;;;4782590;29;20464;-55
2021/10/17 11:04:58;;;;;;;1.70;1.60;;;26.30;32.20;;;;;;4783618;29;20047;-55
2021/10/17 11:07:40;;;;;;;1.83;1.73;;;26.30;32.20;;;;;;4781175;29;20047;-57
2021/10/17 11:10:34;;;;;;;1.98;1.80;;;26.30;32.20;;;;;;4778966;29;20059;-54
2021/10/17 11:13:02;;;;;;;1.50;1.40;;;26.40;32.20;;;;;;4780921;29;20055;-54
2021/10/17 11:15:32;;;;;;;1.45;1.35;;;26.40;32.20;;;;;;4782891;29;20057;-55
2021/10/17 11:18:03;;;;;;;1.45;1.35;;;26.30;32.00;;;;;;4779585;29;20177;-56
2021/10/17 11:20:39;;;;;;;1.70;1.60;;;26.40;32.10;;;;;;4779374;29;20652;-56
2021/10/17 11:23:18;;;;;;;1.85;1.73;;;26.40;32.10;;;;;;4781525;29;20057;-54
2021/10/17 11:25:59;;;;;;;1.48;1.38;;;26.40;32.00;;;;;;4781670;29;20059;-54
2021/10/17 11:28:28;;;;;;;1.33;1.23;;;26.40;32.00;;;;;;4776215;29;20051;-55
2021/10/17 11:31:15;;;;;;;1.60;1.50;;;26.40;31.90;;;;;;4777822;29;20138;-57
2021/10/17 11:33:44;;;;;;;1.63;1.52;;;26.50;31.90;;;;;;4781749;29;20055;-55
2021/10/17 11:36:16;;;;;;;1.42;1.33;;;26.50;31.90;;;;;;4781911;29;20079;-55
2021/10/17 11:38:45;;;;;;;1.50;1.40;;;26.50;31.90;;;;;;4773263;29;20142;-55
2021/10/17 11:41:16;;;;;;;1.40;1.30;;;26.50;31.80;;;;;;4782101;29;20414;-56
2021/10/17 11:43:49;;;;;;;1.60;1.50;;;26.50;31.80;;;;;;4781526;29;20138;-55
2021/10/17 11:46:19;;;;;;;1.33;1.27;;;26.50;31.70;;;;;;4781388;29;20134;-56
2021/10/17 11:48:46;;;;;;;1.50;1.40;;;26.60;31.80;;;;;;4773279;29;20134;-55
2021/10/17 11:51:16;;;;;;;1.40;1.30;;;26.60;31.70;;;;;;4780824;29;20632;-55
2021/10/17 11:53:54;;;;;;;1.80;1.67;;;26.60;31.60;;;;;;4780218;29;20059;-53
2021/10/17 11:56:22;;;;;;;1.48;1.38;;;26.60;31.60;;;;;;4781689;29;20051;-55
2021/10/17 11:58:49;;;;;;;1.10;1.10;;;26.60;31.60;;;;;;4771654;29;20299;-55
2021/10/17 12:01:18;;;;;;;1.15;1.13;;;26.70;31.50;;;;;;4780568;29;20474;-54
2021/10/17 12:03:56;;;;;;;1.38;1.27;;;26.60;31.50;;;;;;4780293;29;20051;-55
2021/10/17 12:06:24;;;;;;;1.30;1.20;;;26.70;31.50;;;;;;4782488;29;20141;-53
2021/10/17 12:08:56;;;;;;;1.38;1.27;;;26.70;31.60;;;;;;4773453;29;20486;-55
2021/10/17 12:11:24;;;;;;;1.23;1.13;;;26.70;31.40;;;;;;4780253;30;20138;-54
2021/10/17 12:13:53;;;;;;;1.35;1.25;;;26.70;31.40;;;;;;4782349;29;20055;-55
2021/10/17 12:16:24;;;;;;;1.73;1.35;;;26.70;31.30;;;;;;4781563;29;20090;-55
2021/10/17 12:19:00;;;;;;;1.20;1.10;;;26.70;31.30;;;;;;4774419;29;20070;-55
2021/10/17 12:21:30;;;;;;;1.02;1.02;;;26.70;31.30;;;;;;4779996;29;20051;-55
2021/10/17 12:23:59;;;;;;;1.45;1.20;;;26.70;31.30;;;;;;4780728;29;20706;-55
2021/10/17 12:26:30;;;;;;;1.63;1.52;;;26.70;31.30;;;;;;4779450;30;20490;-54
2021/10/17 12:29:09;;;;;;;1.40;1.30;;;26.70;31.20;;;;;;4772740;29;20509;-55
2021/10/17 12:31:40;;;;;;;1.15;1.05;;;26.70;31.20;;;;;;4781138;29;20047;-55
2021/10/17 12:34:10;;;;;;;1.17;1.17;;;26.80;31.30;;;;;;4780969;29;20377;-55
2021/10/17 12:36:40;;;;;;;1.08;1.00;;;26.70;31.20;;;;;;4780542;29;20146;-56
2021/10/17 12:39:09;;;;;;;1.33;1.02;;;26.80;31.20;;;;;;4772397;29;20071;-55
2021/10/17 12:41:37;;;;;;;0.90;0.90;;;26.70;31.20;;;;;;4780226;29;20134;-53
2021/10/17 12:44:10;;;;;;;0.90;0.90;;;26.80;31.20;;;;;;4779131;29;20425;-52
2021/10/17 12:46:38;;;;;;;1.00;0.90;;;26.80;31.20;;;;;;4780492;29;20156;-54
2021/10/17 12:49:13;;;;;;;0.80;0.80;;;26.70;31.10;;;;;;4770282;29;20121;-55
2021/10/17 12:51:52;;;;;;;1.20;1.10;;;26.70;31.10;;;;;;4780212;29;20138;-55
2021/10/17 12:54:32;;;;;;;1.20;1.10;;;26.80;31.20;;;;;;4780446;29;20448;-54
2021/10/17 12:57:01;;;;;;;0.83;0.83;;;26.80;31.20;;;;;;4780959;29;20047;-55
2021/10/17 12:59:34;;;;;;;0.70;0.70;;;26.80;31.20;;;;;;4771767;29;20142;-54